Time;durP1;ratioP1;P1;durP2;ratioP2;P2;SDS_P1;SDS_P2;PMS_P1;PMS_P2;Temp;Humidity;BMP_temperature;BMP_pressure;BME280_temperature;BME280_humidity;BME280_pressure;Samples;Min_cycle;Max_cycle;Signal;HPM_P1;HPM_P2
2021/04/28 00:03:36;;;;;;;4.10;1.73;;;;;;;6.10;63.80;98089.78;10374976;28;20177;-77
2021/04/28 00:08:54;;;;;;;1.60;1.50;;;;;;;6.15;62.77;98089.38;10359567;28;20212;-77
2021/04/28 00:14:14;;;;;;;2.13;1.97;;;;;;;5.84;63.97;98079.31;10373133;28;20185;-76
2021/04/28 00:19:33;;;;;;;1.63;1.30;;;;;;;5.62;65.16;98083.22;10373390;28;20180;-75
2021/04/28 00:24:52;;;;;;;2.03;1.67;;;;;;;5.49;65.52;98083.22;10374241;28;20586;-76
2021/04/28 00:30:13;;;;;;;2.60;2.40;;;;;;;5.28;66.23;98088.66;10371578;28;20204;-75
2021/04/28 00:35:32;;;;;;;5.80;2.40;;;;;;;5.28;65.47;98083.19;10359078;28;20752;-75
2021/04/28 00:40:52;;;;;;;2.17;2.00;;;;;;;5.23;66.12;98075.41;10358822;28;20620;-74
2021/04/28 00:46:11;;;;;;;5.53;3.20;;;;;;;5.16;66.48;98070.72;10379424;28;20670;-75
2021/04/28 00:51:30;;;;;;;1.50;1.10;;;;;;;5.25;67.99;98075.81;10382085;28;20615;-74
2021/04/28 00:56:55;;;;;;;1.60;1.47;;;;;;;5.05;68.96;98069.16;10381879;28;20217;-74
2021/04/28 01:02:14;;;;;;;1.40;1.30;;;;;;;5.05;68.57;98077.31;10365425;28;20176;-76
2021/04/28 01:07:34;;;;;;;4.37;1.63;;;;;;;4.60;70.33;98067.13;10366481;28;20219;-75
2021/04/28 01:12:54;;;;;;;2.73;2.13;;;;;;;4.52;70.83;98064.72;10366480;28;20176;-76
2021/04/28 01:18:15;;;;;;;5.60;1.77;;;;;;;4.58;70.46;98069.44;10380338;28;20168;-77
2021/04/28 01:23:34;;;;;;;4.03;1.97;;;;;;;4.51;71.79;98072.13;10380024;28;20623;-75
2021/04/28 01:28:55;;;;;;;1.50;1.10;;;;;;;4.35;72.26;98062.72;10379368;28;20200;-77
2021/04/28 01:34:15;;;;;;;3.80;0.90;;;;;;;4.31;71.92;98068.16;10365781;28;20609;-76
2021/04/28 01:39:35;;;;;;;2.63;2.43;;;;;;;4.33;71.73;98071.28;10380203;28;20204;-75
2021/04/28 01:44:55;;;;;;;1.77;1.53;;;;;;;4.32;70.55;98067.00;10378662;28;20240;-75
2021/04/28 01:50:17;;;;;;;4.20;1.53;;;;;;;4.29;71.00;98067.75;10378440;28;20212;-75
2021/04/28 01:55:36;;;;;;;4.50;2.60;;;;;;;4.26;71.29;98065.81;10378522;28;20260;-75
2021/04/28 02:00:55;;;;;;;2.63;2.43;;;;;;;4.21;72.34;98063.44;10363339;28;20605;-75
2021/04/28 02:06:15;;;;;;;1.57;1.47;;;;;;;4.19;72.61;98060.34;10364619;28;20628;-75
2021/04/28 02:11:34;;;;;;;1.30;1.20;;;;;;;4.16;72.79;98063.81;10378118;28;20643;-75
2021/04/28 02:16:54;;;;;;;1.43;1.33;;;;;;;4.16;72.88;98058.38;10376631;28;20185;-75
2021/04/28 02:22:14;;;;;;;3.77;1.80;;;;;;;4.23;72.40;98063.06;10378789;28;20181;-76
2021/04/28 02:27:34;;;;;;;2.13;1.93;;;;;;;4.23;72.24;98052.97;10378154;28;20208;-75
2021/04/28 02:32:54;;;;;;;1.77;1.50;;;;;;;4.21;71.84;98052.56;10377061;28;20209;-75
2021/04/28 02:38:23;;;;;;;2.00;1.80;;;;;;;4.17;72.35;98042.81;10363038;28;20193;-76
2021/04/28 02:43:43;;;;;;;3.40;1.67;;;;;;;4.05;73.06;98035.75;10376584;28;20184;-75
2021/04/28 02:49:03;;;;;;;1.73;1.63;;;;;;;3.91;73.79;98034.94;10376810;28;20240;-76
2021/04/28 02:54:22;;;;;;;6.53;2.60;;;;;;;3.92;73.65;98029.09;10376492;28;20185;-76
2021/04/28 02:59:42;;;;;;;3.50;1.93;;;;;;;3.92;73.67;98031.81;10376023;28;20177;-76
2021/04/28 03:05:01;;;;;;;4.23;2.40;;;;;;;3.90;73.73;98033.38;10361924;28;20208;-76
2021/04/28 03:10:21;;;;;;;2.13;2.03;;;;;;;3.89;73.77;98028.28;10376518;28;20212;-76
2021/04/28 03:15:41;;;;;;;5.00;2.00;;;;;;;3.91;73.82;98023.25;10360495;28;20181;-75
2021/04/28 03:21:01;;;;;;;2.27;2.00;;;;;;;3.91;73.80;98025.97;10361681;28;20639;-76
2021/04/28 03:26:20;;;;;;;2.30;2.10;;;;;;;3.85;74.08;98027.50;10376212;28;20189;-76
2021/04/28 03:31:39;;;;;;;3.50;1.93;;;;;;;3.80;74.06;98030.56;10374681;28;20184;-75
2021/04/28 03:36:59;;;;;;;17.43;1.97;;;;;;;3.77;74.41;98025.91;10375781;28;20205;-75
2021/04/28 03:42:19;;;;;;;4.37;2.50;;;;;;;3.69;74.91;98030.50;10360861;28;20180;-75
2021/04/28 03:47:37;;;;;;;3.00;1.40;;;;;;;3.63;75.13;98031.28;10373782;28;20232;-76
2021/04/28 03:52:56;;;;;;;2.70;1.90;;;;;;;3.63;75.54;98039.44;10360526;28;20173;-75
2021/04/28 03:58:15;;;;;;;2.03;1.30;;;;;;;3.62;75.19;98029.69;10373521;28;20529;-75
2021/04/28 04:03:34;;;;;;;2.60;2.40;;;;;;;3.60;75.35;98038.22;10374977;28;20176;-75
2021/04/28 04:08:53;;;;;;;2.70;1.77;;;;;;;3.56;75.33;98037.44;10374446;28;20651;-76
2021/04/28 04:14:11;;;;;;;2.57;2.37;;;;;;;3.55;75.50;98040.53;10358091;28;20535;-76
2021/04/28 04:19:31;;;;;;;2.90;2.70;;;;;;;3.54;75.72;98047.13;10372861;28;20647;-77
2021/04/28 04:24:50;;;;;;;1.70;1.60;;;;;;;3.53;75.43;98049.06;10359403;28;20173;-76
2021/04/28 04:30:10;;;;;;;6.10;1.97;;;;;;;3.55;75.96;98056.84;10357604;28;20204;-75
2021/04/28 04:35:29;;;;;;;3.00;2.70;;;;;;;3.60;75.80;98053.75;10372989;28;20240;-77
2021/04/28 04:40:48;;;;;;;2.60;2.40;;;;;;;3.65;76.34;98062.34;10373133;28;20180;-75
2021/04/28 04:46:09;;;;;;;2.83;2.17;;;;;;;3.70;76.97;98059.25;10357513;28;20302;-75
2021/04/28 04:51:28;;;;;;;3.30;1.30;;;;;;;3.87;77.06;98052.41;10358200;28;20208;-74
2021/04/28 04:56:47;;;;;;;2.87;2.17;;;;;;;4.05;77.01;98065.69;10358944;28;20251;-76
2021/04/28 05:02:06;;;;;;;8.43;2.40;;;;;;;4.28;76.81;98062.69;10371939;28;20564;-75
2021/04/28 05:07:25;;;;;;;4.43;2.70;;;;;;;4.56;76.73;98069.03;10371932;28;20208;-75
2021/04/28 05:12:46;;;;;;;2.33;2.20;;;;;;;4.83;76.15;98064.84;10372224;28;20651;-76
2021/04/28 05:18:05;;;;;;;1.90;1.57;;;;;;;5.11;75.96;98076.56;10356809;28;20188;-77
2021/04/28 05:23:24;;;;;;;2.20;1.97;;;;;;;5.47;74.87;98063.72;10373080;28;20651;-76
2021/04/28 05:28:43;;;;;;;5.43;1.73;;;;;;;5.85;73.71;98056.31;10372663;28;20212;-77
2021/04/28 05:34:02;;;;;;;3.10;2.87;;;;;;;6.17;72.59;98057.00;10365682;28;20193;-77
2021/04/28 05:39:21;;;;;;;2.70;1.77;;;;;;;6.53;71.66;98051.00;10380254;28;20184;-77
2021/04/28 05:44:40;;;;;;;6.07;3.87;;;;;;;6.82;70.18;98041.50;10364039;28;20260;-76
2021/04/28 05:50:00;;;;;;;4.53;1.97;;;;;;;7.12;70.50;98041.69;10379352;28;20275;-75
2021/04/28 05:55:19;;;;;;;2.80;2.57;;;;;;;7.52;68.54;98046.47;10378910;28;20593;-76
2021/04/28 06:00:39;;;;;;;4.70;3.53;;;;;;;7.91;67.65;98042.19;10377298;28;20188;-75
2021/04/28 06:05:58;;;;;;;12.67;2.30;;;;;;;8.31;65.47;98044.13;10378519;28;20624;-76
2021/04/28 06:11:17;;;;;;;7.07;3.73;;;;;;;8.59;63.64;98052.78;10378150;28;20216;-76
2021/04/28 06:16:36;;;;;;;3.80;3.30;;;;;;;9.04;61.96;98043.16;10377767;28;20181;-75
2021/04/28 06:21:56;;;;;;;3.13;2.83;;;;;;;9.34;60.48;98046.63;10378731;28;20529;-75
2021/04/28 06:27:15;;;;;;;4.53;2.90;;;;;;;9.77;59.82;98042.00;10377519;28;20212;-74
2021/04/28 06:32:34;;;;;;;3.67;3.37;;;;;;;10.19;58.21;98043.97;10377112;28;20632;-74
2021/04/28 06:37:53;;;;;;;6.10;4.53;;;;;;;10.66;56.57;98044.19;10377934;28;20200;-77
2021/04/28 06:43:12;;;;;;;12.27;5.33;;;;;;;11.24;54.46;98035.84;10376442;28;20255;-77
2021/04/28 06:48:31;;;;;;;8.67;6.30;;;;;;;11.73;51.78;98033.91;10376910;28;20228;-76
2021/04/28 06:53:50;;;;;;;5.20;4.60;;;;;;;12.24;51.01;98030.97;10362723;28;20177;-76
2021/04/28 06:59:09;;;;;;;8.03;4.50;;;;;;;12.58;49.75;98029.22;10376021;28;20548;-76
2021/04/28 07:04:28;;;;;;;5.40;5.00;;;;;;;13.15;48.02;98029.13;10377099;28;20181;-76
2021/04/28 07:09:47;;;;;;;5.07;3.50;;;;;;;13.51;46.99;98024.00;10361573;28;20565;-76
2021/04/28 07:15:07;;;;;;;3.83;3.50;;;;;;;13.85;46.50;98020.09;10375602;28;20176;-76
2021/04/28 07:20:26;;;;;;;6.87;4.13;;;;;;;14.38;45.81;98024.56;10361688;28;20173;-75
2021/04/28 07:25:46;;;;;;;6.10;5.50;;;;;;;14.84;43.41;98016.13;10361353;28;20181;-76
2021/04/28 07:31:06;;;;;;;6.33;4.27;;;;;;;15.10;42.24;98020.28;10374047;28;20212;-76
2021/04/28 07:36:25;;;;;;;7.93;4.83;;;;;;;15.58;42.29;98012.06;10360864;28;20196;-79
2021/04/28 07:41:44;;;;;;;6.17;4.17;;;;;;;16.20;41.11;98010.59;10375810;28;20649;-77
2021/04/28 07:47:05;;;;;;;7.67;3.67;;;;;;;16.55;40.05;98015.41;10358883;28;20703;-77
2021/04/28 07:52:24;;;;;;;8.77;4.90;;;;;;;16.99;39.84;98011.78;10359133;28;20189;-77
2021/04/28 07:57:43;;;;;;;12.43;5.10;;;;;;;17.28;38.39;98009.25;10360068;28;20264;-77
2021/04/28 08:03:02;;;;;;;8.00;4.70;;;;;;;17.74;37.79;98010.56;10373476;28;20201;-77
2021/04/28 08:08:21;;;;;;;6.67;4.63;;;;;;;17.72;37.64;98007.47;10374563;28;20659;-77
2021/04/28 08:13:40;;;;;;;6.03;4.40;;;;;;;17.90;38.66;98005.34;10358502;28;20180;-78
2021/04/28 08:18:59;;;;;;;5.37;4.43;;;;;;;18.58;35.63;98004.25;10374253;28;20611;-75
2021/04/28 08:24:18;;;;;;;6.87;4.57;;;;;;;18.65;37.29;98012.22;10374187;28;20181;-76
2021/04/28 08:29:36;;;;;;;4.87;3.87;;;;;;;19.04;34.82;97994.97;10357556;28;20201;-75
2021/04/28 08:34:55;;;;;;;5.67;4.37;;;;;;;19.17;35.23;97998.25;10373278;28;20647;-78
2021/04/28 08:40:17;;;;;;;4.83;4.40;;;;;;;19.59;35.29;97993.06;10373982;28;20251;-76
2021/04/28 08:45:36;;;;;;;6.30;4.37;;;;;;;19.96;35.90;97983.75;10372237;28;20224;-75
2021/04/28 08:50:55;;;;;;;5.00;4.20;;;;;;;20.39;35.00;97980.72;10373211;28;20205;-75
2021/04/28 08:56:14;;;;;;;8.50;5.50;;;;;;;21.03;32.97;97978.34;10373565;28;20208;-75
2021/04/28 09:01:36;;;;;;;8.47;5.07;;;;;;;21.41;32.36;97975.09;10372271;28;20184;-75
2021/04/28 09:06:55;;;;;;;6.30;4.47;;;;;;;20.78;32.85;97979.13;10379795;28;20615;-76
2021/04/28 09:12:14;;;;;;;7.33;5.07;;;;;;;21.54;32.41;97973.41;10366481;28;20647;-75
2021/04/28 09:17:50;;;;;;;9.10;5.03;;;;;;;22.18;32.61;97971.50;10365250;28;20188;-76
2021/04/28 09:23:15;;;;;;;7.83;4.50;;;;;;;22.52;33.09;97970.41;10380454;28;20251;-74
2021/04/28 09:28:36;;;;;;;5.00;3.60;;;;;;;22.80;30.08;97968.41;10377689;28;20216;-77
2021/04/28 09:33:59;;;;;;;7.13;5.10;;;;;;;22.97;30.92;97969.19;10379366;28;20581;-75
2021/04/28 09:39:18;;;;;;;5.10;4.00;;;;;;;23.60;31.21;97946.50;10380291;28;20619;-76
2021/04/28 09:44:38;;;;;;;4.93;4.27;;;;;;;23.94;28.89;97933.19;10378898;28;20254;-77
2021/04/28 09:50:00;;;;;;;6.17;5.03;;;;;;;24.30;30.07;97944.00;10379524;28;20208;-78
2021/04/28 09:55:19;;;;;;;9.67;5.53;;;;;;;24.14;29.01;97933.59;10379858;28;20204;-78
2021/04/28 10:00:38;;;;;;;6.13;3.97;;;;;;;24.79;26.63;97924.06;10378175;28;20176;-77
2021/04/28 10:05:58;;;;;;;8.47;5.03;;;;;;;25.17;26.91;97914.56;10364336;28;20280;-77
2021/04/28 10:11:17;;;;;;;16.63;10.23;;;;;;;25.30;28.04;97903.47;10378607;28;20720;-77
2021/04/28 10:16:36;;;;;;;12.60;7.53;;;;;;;25.30;27.33;97906.28;10362063;28;20181;-78
2021/04/28 10:22:01;;;;;;;5.67;5.10;;;;;;;25.46;27.33;97908.94;10378868;28;20180;-77
2021/04/28 10:27:20;;;;;;;7.10;4.80;;;;;;;26.09;25.95;97898.78;10363590;28;20201;-77
2021/04/28 10:32:41;;;;;;;6.67;4.10;;;;;;;26.79;23.67;97903.97;10375769;28;20204;-78
2021/04/28 10:38:01;;;;;;;4.83;4.43;;;;;;;26.13;24.68;97887.19;10356561;28;20675;-78
2021/04/28 10:43:20;;;;;;;5.67;4.97;;;;;;;24.81;24.67;97893.38;10361496;28;20283;-77
2021/04/28 10:48:40;;;;;;;13.67;5.50;;;;;;;25.00;24.90;97889.38;10362129;28;20311;-78
2021/04/28 10:54:20;;;;;;;4.73;3.90;;;;;;;25.91;23.98;97879.78;10362759;28;20185;-76
2021/04/28 10:59:43;;;;;;;9.70;4.30;;;;;;;25.07;23.18;97879.59;10361334;28;20177;-78
2021/04/28 11:05:05;;;;;;;6.10;3.90;;;;;;;24.99;22.78;97870.19;10362109;28;20173;-76
2021/04/28 11:10:29;;;;;;;4.70;3.27;;;;;;;25.91;21.04;97860.03;10376191;28;20216;-77
2021/04/28 11:15:53;;;;;;;5.03;4.10;;;;;;;25.96;20.53;97855.63;10375290;28;20631;-80
2021/04/28 11:21:18;;;;;;;7.33;5.13;;;;;;;27.20;21.47;97854.31;10376378;28;20180;-77
2021/04/28 11:26:39;;;;;;;7.23;5.10;;;;;;;27.60;20.95;97847.41;10374763;28;20185;-77
2021/04/28 11:31:59;;;;;;;4.23;3.57;;;;;;;27.21;21.92;97833.25;10374761;28;20279;-77
2021/04/28 11:37:18;;;;;;;5.33;4.20;;;;;;;27.53;20.61;97836.75;10375597;28;20180;-80
2021/04/28 11:42:38;;;;;;;6.80;4.97;;;;;;;27.18;20.84;97833.56;10374141;28;20193;-77
2021/04/28 11:47:57;;;;;;;6.63;4.50;;;;;;;27.86;20.29;97836.88;10358739;28;20350;-77
2021/04/28 11:53:16;;;;;;;5.67;4.87;;;;;;;27.71;19.65;97835.88;10373961;28;20176;-80
2021/04/28 11:58:36;;;;;;;6.10;5.50;;;;;;;28.48;19.61;97824.47;10373918;28;20172;-77
2021/04/28 12:04:00;;;;;;;5.97;4.00;;;;;;;28.87;19.51;97824.31;10374933;28;20204;-77
2021/04/28 12:09:35;;;;;;;4.60;4.10;;;;;;;29.27;19.72;97811.44;10374579;28;20659;-79
2021/04/28 12:15:06;;;;;;;6.60;4.23;;;;;;;28.81;18.64;97811.59;10373406;28;20627;-80
2021/04/28 12:20:26;;;;;;;9.47;4.60;;;;;;;28.82;18.61;97813.88;10374393;28;20169;-79
2021/04/28 12:25:45;;;;;;;7.07;4.97;;;;;;;29.94;17.85;97802.63;10374435;28;20229;-79
2021/04/28 12:31:04;;;;;;;6.67;4.70;;;;;;;29.57;17.91;97795.41;10371395;28;20207;-80
2021/04/28 12:36:26;;;;;;;6.67;5.37;;;;;;;28.76;18.02;97792.66;10374144;28;20181;-78
2021/04/28 12:41:45;;;;;;;12.13;6.53;;;;;;;28.95;18.09;97794.00;10358745;28;20212;-78
2021/04/28 12:47:04;;;;;;;5.83;4.30;;;;;;;27.71;20.05;97791.44;10372157;28;20232;-78
2021/04/28 12:52:23;;;;;;;9.47;4.83;;;;;;;28.59;19.30;97784.56;10358981;28;20632;-79
2021/04/28 12:57:51;;;;;;;6.37;4.10;;;;;;;28.51;19.33;97769.56;10372684;28;20212;-78
2021/04/28 13:03:32;;;;;;;4.00;3.60;;;;;;;27.43;19.64;97770.69;10357462;28;20180;-80
2021/04/28 13:08:53;;;;;;;12.50;4.87;;;;;;;27.02;20.58;97764.78;10358444;28;20261;-78
2021/04/28 13:14:16;;;;;;;4.87;4.03;;;;;;;27.32;19.27;97762.41;10357348;28;20180;-78
2021/04/28 13:19:35;;;;;;;5.07;3.80;;;;;;;27.00;19.71;97755.31;10373345;28;20164;-79
2021/04/28 13:24:54;;;;;;;5.63;5.07;;;;;;;28.01;19.08;97740.91;10372535;28;20248;-79
2021/04/28 13:30:19;;;;;;;8.50;5.07;;;;;;;29.26;18.46;97734.19;10371451;28;20240;-78
2021/04/28 13:35:39;;;;;;;6.83;5.07;;;;;;;29.54;18.97;97728.50;10372757;28;20547;-78
2021/04/28 13:41:09;;;;;;;7.67;4.70;;;;;;;29.32;18.91;97726.28;10372763;28;20173;-79
2021/04/28 13:46:31;;;;;;;7.17;4.43;;;;;;;28.75;18.19;97712.66;10370883;28;20224;-79
2021/04/28 13:52:00;;;;;;;5.50;5.00;;;;;;;29.27;19.21;97703.75;10374869;28;20216;-80
2021/04/28 13:57:19;;;;;;;5.43;4.53;;;;;;;29.21;17.86;97700.34;10379693;28;20608;-77
2021/04/28 14:02:38;;;;;;;7.60;4.50;;;;;;;29.34;18.15;97692.50;10378155;28;20177;-78
2021/04/28 14:07:57;;;;;;;6.43;4.40;;;;;;;28.90;18.97;97678.03;10364107;28;20204;-77
2021/04/28 14:13:16;;;;;;;7.07;5.30;;;;;;;28.57;18.78;97679.66;10376970;28;20267;-77
2021/04/28 14:18:35;;;;;;;5.20;4.20;;;;;;;28.41;20.06;97677.25;10363394;28;20614;-78
2021/04/28 14:23:54;;;;;;;5.17;4.50;;;;;;;28.79;19.34;97667.78;10377101;28;20264;-77
2021/04/28 14:29:12;;;;;;;4.27;3.87;;;;;;;29.58;18.59;97662.94;10376277;28;20209;-77
2021/04/28 14:34:31;;;;;;;5.10;4.37;;;;;;;27.63;19.43;97654.16;10377957;28;20229;-77
2021/04/28 14:39:51;;;;;;;4.80;3.30;;;;;;;27.75;19.86;97644.88;10377907;28;20172;-77
2021/04/28 14:45:10;;;;;;;5.50;4.40;;;;;;;27.25;21.33;97641.63;10361531;28;20228;-77
2021/04/28 14:50:29;;;;;;;6.20;5.37;;;;;;;27.51;20.29;97631.03;10362444;28;20662;-77
2021/04/28 14:55:48;;;;;;;14.33;4.13;;;;;;;28.40;19.83;97634.06;10377575;28;20264;-77
2021/04/28 15:01:08;;;;;;;7.07;4.43;;;;;;;28.17;20.29;97623.06;10375050;28;20612;-78
2021/04/28 15:06:27;;;;;;;6.10;4.23;;;;;;;28.02;20.91;97628.59;10376971;28;20533;-77
2021/04/28 15:11:47;;;;;;;9.40;4.60;;;;;;;27.99;19.86;97621.94;10375880;28;20216;-77
2021/04/28 15:17:05;;;;;;;5.13;4.40;;;;;;;27.52;20.82;97609.19;10375217;28;20176;-78
2021/04/28 15:22:24;;;;;;;4.17;3.60;;;;;;;27.33;21.78;97608.59;10361201;28;20217;-77
2021/04/28 15:27:45;;;;;;;3.63;3.23;;;;;;;27.84;20.86;97596.38;10375961;28;20200;-77
2021/04/28 15:33:04;;;;;;;5.47;3.40;;;;;;;28.16;21.28;97599.69;10374576;28;20197;-78
2021/04/28 15:38:23;;;;;;;6.00;4.73;;;;;;;28.45;20.19;97590.72;10375480;28;20248;-78
2021/04/28 15:43:43;;;;;;;5.30;3.87;;;;;;;28.16;20.05;97593.28;10373170;28;20569;-79
2021/04/28 15:49:05;;;;;;;4.13;3.20;;;;;;;26.94;22.02;97593.75;10359702;28;20228;-78
2021/04/28 15:54:27;;;;;;;7.10;3.50;;;;;;;26.48;22.74;97582.38;10375284;28;20173;-79
2021/04/28 15:59:46;;;;;;;5.50;4.73;;;;;;;25.92;24.11;97570.56;10358863;28;20192;-79
2021/04/28 16:05:06;;;;;;;4.83;4.00;;;;;;;25.34;24.11;97563.25;10373849;28;20189;-78
2021/04/28 16:10:25;;;;;;;3.97;3.67;;;;;;;25.30;24.38;97569.19;10373269;28;20562;-79
2021/04/28 16:15:44;;;;;;;6.00;3.83;;;;;;;24.76;24.34;97558.66;10371455;28;20214;-78
2021/04/28 16:21:05;;;;;;;3.80;3.50;;;;;;;24.84;24.60;97562.41;10374586;28;20173;-78
2021/04/28 16:26:24;;;;;;;7.40;4.67;;;;;;;24.94;25.39;97549.47;10374371;28;20200;-79
2021/04/28 16:31:43;;;;;;;4.97;3.87;;;;;;;24.65;25.65;97548.31;10357474;28;20208;-78
2021/04/28 16:37:02;;;;;;;5.70;4.17;;;;;;;23.53;28.17;97556.78;10374002;28;20181;-77
2021/04/28 16:42:21;;;;;;;5.30;3.87;;;;;;;22.98;27.84;97547.19;10359116;28;20172;-78
2021/04/28 16:47:40;;;;;;;8.90;4.60;;;;;;;22.67;27.90;97542.00;10356831;28;20231;-77
2021/04/28 16:52:59;;;;;;;6.93;4.57;;;;;;;22.65;28.28;97538.94;10359003;28;20177;-76
2021/04/28 16:58:18;;;;;;;4.27;3.87;;;;;;;22.22;29.26;97528.63;10373654;28;20181;-77
2021/04/28 17:03:37;;;;;;;6.20;3.97;;;;;;;22.11;29.63;97531.44;10372760;28;20263;-77
2021/04/28 17:08:56;;;;;;;4.53;3.53;;;;;;;21.81;29.75;97536.84;10372215;28;20299;-77
2021/04/28 17:14:15;;;;;;;4.90;4.50;;;;;;;21.98;30.13;97532.00;10372028;28;20667;-77
2021/04/28 17:19:34;;;;;;;3.50;3.00;;;;;;;22.00;30.10;97529.44;10373262;28;20204;-78
2021/04/28 17:24:53;;;;;;;4.20;3.80;;;;;;;21.67;30.03;97533.56;10359644;28;20210;-77
2021/04/28 17:30:13;;;;;;;3.60;3.30;;;;;;;21.35;30.72;97529.47;10364299;28;20208;-77
2021/04/28 17:35:32;;;;;;;4.70;3.33;;;;;;;21.01;32.15;97527.88;10365669;28;20522;-77
2021/04/28 17:40:51;;;;;;;5.47;3.73;;;;;;;20.78;32.18;97526.31;10378929;28;20177;-77
2021/04/28 17:46:10;;;;;;;3.80;3.47;;;;;;;20.67;32.90;97526.28;10378643;28;20224;-76
2021/04/28 17:51:29;;;;;;;4.77;3.60;;;;;;;20.51;33.63;97515.81;10364671;28;20212;-78
2021/04/28 17:56:48;;;;;;;4.20;3.77;;;;;;;20.13;34.37;97521.97;10379821;28;20592;-78
2021/04/28 18:02:07;;;;;;;5.20;3.17;;;;;;;19.89;35.34;97531.19;10378336;28;20184;-78
2021/04/28 18:07:26;;;;;;;5.60;3.70;;;;;;;19.64;35.56;97529.22;10379333;28;20291;-78
2021/04/28 18:12:45;;;;;;;3.47;3.20;;;;;;;19.55;35.19;97532.97;10378160;28;20284;-77
2021/04/28 18:18:04;;;;;;;5.73;3.70;;;;;;;19.41;35.64;97533.91;10378000;28;20220;-77
2021/04/28 18:23:24;;;;;;;7.07;3.20;;;;;;;19.29;35.87;97532.25;10378927;28;20631;-78
2021/04/28 18:28:43;;;;;;;3.00;2.80;;;;;;;19.21;36.49;97532.44;10362266;28;20235;-78
2021/04/28 18:34:03;;;;;;;7.70;2.53;;;;;;;18.88;36.87;97529.28;10377524;28;20169;-78
2021/04/28 18:39:23;;;;;;;5.30;2.80;;;;;;;18.85;37.15;97531.03;10377374;28;20176;-76
2021/04/28 18:44:42;;;;;;;2.67;2.47;;;;;;;18.69;36.97;97528.84;10376198;28;20679;-79
2021/04/28 18:50:00;;;;;;;3.93;3.20;;;;;;;18.65;37.09;97535.88;10377509;28;20212;-78
2021/04/28 18:55:21;;;;;;;2.97;2.77;;;;;;;18.61;37.08;97532.56;10362780;28;20176;-78
2021/04/28 19:00:40;;;;;;;10.93;3.37;;;;;;;18.54;37.35;97535.75;10376053;28;20547;-78
2021/04/28 19:05:59;;;;;;;4.70;4.07;;;;;;;18.48;37.60;97535.72;10377121;28;20567;-78
2021/04/28 19:11:18;;;;;;;5.20;3.27;;;;;;;18.33;39.43;97539.81;10376319;28;20303;-77
2021/04/28 19:16:37;;;;;;;4.43;2.77;;;;;;;18.05;39.48;97543.44;10375586;28;20251;-77
2021/04/28 19:21:56;;;;;;;4.43;3.13;;;;;;;17.78;39.87;97536.25;10376461;28;20627;-77
2021/04/28 19:27:15;;;;;;;4.20;3.80;;;;;;;18.06;39.59;97542.19;10376319;28;20208;-76
2021/04/28 19:32:35;;;;;;;2.63;2.40;;;;;;;17.87;40.98;97533.34;10374472;28;20204;-78
2021/04/28 19:37:54;;;;;;;5.03;3.40;;;;;;;17.88;41.83;97536.88;10361006;28;20184;-78
2021/04/28 19:43:13;;;;;;;3.13;2.60;;;;;;;17.76;41.86;97529.66;10375644;28;20165;-77
2021/04/28 19:48:32;;;;;;;5.43;3.53;;;;;;;17.75;41.85;97517.75;10374654;28;20221;-77
2021/04/28 19:53:52;;;;;;;6.10;3.70;;;;;;;17.76;41.28;97521.31;10374907;28;20319;-76
2021/04/28 19:59:11;;;;;;;4.17;3.37;;;;;;;17.77;42.95;97514.47;10373930;28;20634;-77
2021/04/28 20:04:30;;;;;;;3.67;3.40;;;;;;;17.70;44.11;97506.53;10375392;28;20172;-77
2021/04/28 20:09:52;;;;;;;3.90;3.60;;;;;;;17.59;45.52;97511.94;10374538;28;20282;-76
2021/04/28 20:15:12;;;;;;;6.37;4.00;;;;;;;17.51;44.87;97508.03;10373697;28;20169;-78
2021/04/28 20:20:32;;;;;;;6.40;3.60;;;;;;;17.28;46.94;97505.38;10374548;28;20176;-78
2021/04/28 20:25:52;;;;;;;3.60;3.10;;;;;;;17.22;46.60;97502.47;10373461;28;20169;-78
2021/04/28 20:31:11;;;;;;;6.23;4.47;;;;;;;17.06;46.15;97494.63;10372413;28;20702;-79
2021/04/28 20:36:30;;;;;;;8.93;5.50;;;;;;;17.07;45.94;97493.38;10359480;28;20184;-77
2021/04/28 20:41:48;;;;;;;8.97;5.10;;;;;;;17.08;47.71;97500.47;10359321;28;20605;-76
2021/04/28 20:47:07;;;;;;;5.90;4.17;;;;;;;17.04;47.92;97502.66;10357314;28;20220;-76
2021/04/28 20:52:26;;;;;;;3.67;3.33;;;;;;;16.94;49.64;97497.69;10372879;28;20192;-77
2021/04/28 20:57:46;;;;;;;4.70;4.20;;;;;;;16.96;45.18;97495.97;10373858;28;20256;-77
2021/04/28 21:03:05;;;;;;;5.80;4.23;;;;;;;16.87;45.70;97490.53;10379585;28;20181;-77
2021/04/28 21:08:24;;;;;;;5.43;4.20;;;;;;;16.16;52.11;97514.09;10381616;28;20666;-76
2021/04/28 21:13:43;;;;;;;9.57;4.20;;;;;;;16.01;49.05;97516.06;10380367;28;20181;-76
2021/04/28 21:19:02;;;;;;;6.40;4.13;;;;;;;16.27;47.85;97522.69;10381381;28;20177;-76
2021/04/28 21:24:21;;;;;;;5.47;4.47;;;;;;;16.15;48.11;97517.38;10380312;28;20176;-77
2021/04/28 21:29:41;;;;;;;3.00;2.40;;;;;;;16.07;44.54;97530.06;10378379;28;20216;-78
2021/04/28 21:35:00;;;;;;;2.73;2.53;;;;;;;15.94;43.29;97535.06;10379809;28;20623;-77
2021/04/28 21:40:19;;;;;;;2.50;2.30;;;;;;;15.89;43.22;97540.47;10380777;28;20181;-78
2021/04/28 21:45:39;;;;;;;1.97;1.73;;;;;;;15.89;42.48;97530.16;10363999;28;20216;-77
2021/04/28 21:50:58;;;;;;;2.80;1.60;;;;;;;15.53;44.46;97541.44;10379772;28;20217;-78
2021/04/28 21:56:17;;;;;;;1.70;1.23;;;;;;;15.59;44.51;97533.25;10380016;28;20188;-78
2021/04/28 22:01:36;;;;;;;1.97;1.60;;;;;;;15.55;45.58;97541.75;10377560;28;20619;-77
2021/04/28 22:06:56;;;;;;;2.40;2.20;;;;;;;15.43;46.64;97539.19;10364868;28;20181;-77
2021/04/28 22:12:15;;;;;;;5.90;1.90;;;;;;;15.19;48.41;97533.53;10363321;28;20176;-77
2021/04/28 22:17:34;;;;;;;4.50;2.50;;;;;;;15.13;49.29;97537.41;10363300;28;20181;-76
2021/04/28 22:22:53;;;;;;;4.73;2.57;;;;;;;15.13;49.99;97534.66;10379192;28;20176;-77
2021/04/28 22:28:14;;;;;;;1.80;1.70;;;;;;;15.06;50.79;97545.25;10363754;28;20287;-76
2021/04/28 22:33:33;;;;;;;3.70;2.73;;;;;;;14.94;51.18;97540.69;10363797;28;20184;-76
2021/04/28 22:38:52;;;;;;;2.60;1.90;;;;;;;14.85;52.67;97551.78;10378525;28;20220;-76
2021/04/28 22:44:12;;;;;;;2.60;2.40;;;;;;;14.70;53.97;97561.94;10376757;28;20184;-76
2021/04/28 22:49:31;;;;;;;2.63;1.73;;;;;;;14.54;54.69;97579.63;10377803;28;20248;-76
2021/04/28 22:54:50;;;;;;;4.67;3.63;;;;;;;14.33;56.31;97588.06;10376738;28;20181;-77
2021/04/28 23:00:12;;;;;;;4.60;3.00;;;;;;;14.20;57.82;97579.16;10376349;28;20216;-77
2021/04/28 23:05:31;;;;;;;5.23;3.30;;;;;;;14.14;59.35;97580.19;10362606;28;20180;-76
2021/04/28 23:10:50;;;;;;;6.47;2.83;;;;;;;14.01;61.69;97585.84;10375756;28;20208;-78
2021/04/28 23:16:09;;;;;;;4.20;3.43;;;;;;;13.94;63.16;97597.19;10360907;28;20180;-78
2021/04/28 23:21:27;;;;;;;4.40;4.00;;;;;;;13.88;64.00;97590.72;10376622;28;20215;-77
2021/04/28 23:26:46;;;;;;;3.90;3.50;;;;;;;13.81;65.36;97591.00;10375352;28;20263;-77
2021/04/28 23:32:06;;;;;;;6.17;4.57;;;;;;;13.71;66.78;97592.22;10373358;28;20220;-77
2021/04/28 23:37:25;;;;;;;10.63;3.50;;;;;;;13.59;67.98;97590.31;10361210;28;20184;-77
2021/04/28 23:42:44;;;;;;;4.53;3.43;;;;;;;13.55;68.86;97594.44;10374981;28;20280;-77
2021/04/28 23:48:04;;;;;;;3.33;3.00;;;;;;;13.52;69.67;97591.81;10373973;28;20687;-77
2021/04/28 23:53:23;;;;;;;8.37;4.97;;;;;;;13.41;71.98;97594.22;10375750;28;20185;-76
2021/04/28 23:58:42;;;;;;;9.00;5.20;;;;;;;13.30;73.67;97600.13;10374222;28;20178;-76
